sensor_id;sensor_type;location;lat;lon;timestamp;pressure;altitude;pressure_sealevel;temperature;humidity
53699;BME280;68408;53.952;27.612;2023-04-28T00:01:21;1013.1;;;4.9;59.3
53699;BME280;68408;53.952;27.612;2023-04-28T00:06:23;1013.2;;;4.9;59.5
53699;BME280;68408;53.952;27.612;2023-04-28T00:11:49;1013.2;;;4.8;59.7
53699;BME280;68408;53.952;27.612;2023-04-28T00:16:07;1013.2;;;4.8;59.9
53699;BME280;68408;53.952;27.612;2023-04-28T00:21:25;1013.3;;;4.7;60.4
53699;BME280;68408;53.952;27.612;2023-04-28T00:26:29;1013.3;;;4.7;60.5
53699;BME280;68408;53.952;27.612;2023-04-28T00:31:21;1013.3;;;4.6;60.9
53699;BME280;68408;53.952;27.612;2023-04-28T00:36:33;1013.3;;;4.5;61.2
53699;BME280;68408;53.952;27.612;2023-04-28T00:41:27;1013.4;;;4.5;61.6
53699;BME280;68408;53.952;27.612;2023-04-28T00:46:22;1013.4;;;4.5;61.6
53699;BME280;68408;53.952;27.612;2023-04-28T00:51:33;1013.5;;;4.4;61.8
53699;BME280;68408;53.952;27.612;2023-04-28T00:56:51;1013.5;;;4.4;62
53699;BME280;68408;53.952;27.612;2023-04-28T01:01:21;1013.5;;;4.4;62.2
53699;BME280;68408;53.952;27.612;2023-04-28T01:06:25;1013.5;;;4.3;62.5
53699;BME280;68408;53.952;27.612;2023-04-28T01:11:13;1013.5;;;4.3;62.4
53699;BME280;68408;53.952;27.612;2023-04-28T01:16:49;1013.5;;;4.3;62.5
53699;BME280;68408;53.952;27.612;2023-04-28T01:21:41;1013.6;;;4.2;62.8
53699;BME280;68408;53.952;27.612;2023-04-28T01:26:15;1013.6;;;4.2;63.2
53699;BME280;68408;53.952;27.612;2023-04-28T01:31:33;1013.6;;;4.2;63.4
53699;BME280;68408;53.952;27.612;2023-04-28T01:36:13;1013.6;;;4.2;63.6
53699;BME280;68408;53.952;27.612;2023-04-28T01:41:13;1013.6;;;4.2;63.7
53699;BME280;68408;53.952;27.612;2023-04-28T01:46:27;1013.6;;;4.2;63.7
53699;BME280;68408;53.952;27.612;2023-04-28T01:51:49;1013.6;;;4.2;63.7
53699;BME280;68408;53.952;27.612;2023-04-28T01:56:07;1013.6;;;4.1;63.8
53699;BME280;68408;53.952;27.612;2023-04-28T02:01:33;1013.6;;;4.1;63.9
53699;BME280;68408;53.952;27.612;2023-04-28T02:06:41;1013.7;;;4;63.7
53699;BME280;68408;53.952;27.612;2023-04-28T02:11:39;1013.7;;;4;63.6
53699;BME280;68408;53.952;27.612;2023-04-28T02:16:17;1013.7;;;4;63.9
53699;BME280;68408;53.952;27.612;2023-04-28T02:21:31;1013.7;;;3.9;64.1
53699;BME280;68408;53.952;27.612;2023-04-28T02:26:51;1013.8;;;3.9;63.9
53699;BME280;68408;53.952;27.612;2023-04-28T02:31:49;1013.8;;;3.9;63.9
53699;BME280;68408;53.952;27.612;2023-04-28T02:36:15;1013.8;;;3.9;64.1
53699;BME280;68408;53.952;27.612;2023-04-28T02:41:49;1013.9;;;3.8;64.3
53699;BME280;68408;53.952;27.612;2023-04-28T02:46:41;1013.9;;;3.8;64.4
53699;BME280;68408;53.952;27.612;2023-04-28T02:51:21;1014;;;3.8;64
53699;BME280;68408;53.952;27.612;2023-04-28T02:56:15;1014;;;3.8;63.8
53699;BME280;68408;53.952;27.612;2023-04-28T03:01:49;1014;;;3.9;63.7
53699;BME280;68408;53.952;27.612;2023-04-28T03:06:07;1014;;;3.9;63.4
53699;BME280;68408;53.952;27.612;2023-04-28T03:11:37;1014.1;;;3.9;63.3
53699;BME280;68408;53.952;27.612;2023-04-28T03:16:49;1014.1;;;4;63.3
53699;BME280;68408;53.952;27.612;2023-04-28T03:21:07;1014.2;;;4.1;63.1
53699;BME280;68408;53.952;27.612;2023-04-28T03:26:07;1014.3;;;4.2;62.9
53699;BME280;68408;53.952;27.612;2023-04-28T03:31:15;1014.3;;;4.2;62.6
53699;BME280;68408;53.952;27.612;2023-04-28T03:36:21;1014.4;;;4.3;62.3
53699;BME280;68408;53.952;27.612;2023-04-28T03:41:27;1014.4;;;4.4;62
53699;BME280;68408;53.952;27.612;2023-04-28T03:46:29;1014.5;;;4.6;61.6
53699;BME280;68408;53.952;27.612;2023-04-28T03:51:19;1014.5;;;4.7;61
53699;BME280;68408;53.952;27.612;2023-04-28T03:56:25;1014.5;;;4.9;60.2
53699;BME280;68408;53.952;27.612;2023-04-28T04:01:49;1014.6;;;5;59.8
53699;BME280;68408;53.952;27.612;2023-04-28T04:06:07;1014.7;;;5.2;59.4
53699;BME280;68408;53.952;27.612;2023-04-28T04:11:07;1014.7;;;5.4;58.6
53699;BME280;68408;53.952;27.612;2023-04-28T04:16:07;1014.7;;;5.6;58.1
53699;BME280;68408;53.952;27.612;2023-04-28T04:21:49;1014.8;;;5.6;57.7
53699;BME280;68408;53.952;27.612;2023-04-28T04:26:15;1014.8;;;5.6;57.4
53699;BME280;68408;53.952;27.612;2023-04-28T04:31:15;1014.8;;;5.5;57.5
53699;BME280;68408;53.952;27.612;2023-04-28T04:36:47;1014.8;;;5.4;57.6
53699;BME280;68408;53.952;27.612;2023-04-28T04:41:27;1014.8;;;5.3;58.1
53699;BME280;68408;53.952;27.612;2023-04-28T04:46:15;1014.9;;;5.4;58.1
53699;BME280;68408;53.952;27.612;2023-04-28T04:51:07;1014.9;;;5.5;57.9
53699;BME280;68408;53.952;27.612;2023-04-28T04:56:47;1015;;;5.6;57.6
53699;BME280;68408;53.952;27.612;2023-04-28T05:01:07;1015.1;;;5.7;57.1
53699;BME280;68408;53.952;27.612;2023-04-28T05:06:39;1015.1;;;5.7;56.5
53699;BME280;68408;53.952;27.612;2023-04-28T05:11:49;1015.1;;;5.8;56.5
53699;BME280;68408;53.952;27.612;2023-04-28T05:16:15;1015.1;;;5.9;55.9
53699;BME280;68408;53.952;27.612;2023-04-28T05:21:41;1015.1;;;5.9;55.5
53699;BME280;68408;53.952;27.612;2023-04-28T05:26:37;1015.1;;;5.9;55.2
53699;BME280;68408;53.952;27.612;2023-04-28T05:31:49;1015.2;;;5.9;55.1
53699;BME280;68408;53.952;27.612;2023-04-28T05:36:50;1015.2;;;6.1;54.7
53699;BME280;68408;53.952;27.612;2023-04-28T05:41:07;1015.2;;;6.2;54
53699;BME280;68408;53.952;27.612;2023-04-28T05:46:47;1015.3;;;6.4;53.9
53699;BME280;68408;53.952;27.612;2023-04-28T05:51:39;1015.4;;;6.4;52.9
53699;BME280;68408;53.952;27.612;2023-04-28T05:56:07;1015.4;;;6.4;52.3
53699;BME280;68408;53.952;27.612;2023-04-28T06:01:21;1015.4;;;6.5;52
53699;BME280;68408;53.952;27.612;2023-04-28T06:06:47;1015.4;;;6.6;52.2
53699;BME280;68408;53.952;27.612;2023-04-28T06:11:15;1015.4;;;6.7;51.5
53699;BME280;68408;53.952;27.612;2023-04-28T06:16:35;1015.4;;;6.9;51.4
53699;BME280;68408;53.952;27.612;2023-04-28T06:21:45;1015.3;;;7.2;49.4
53699;BME280;68408;53.952;27.612;2023-04-28T06:26:07;1015.3;;;7.4;48.7
53699;BME280;68408;53.952;27.612;2023-04-28T06:31:25;1015.4;;;7.5;46.9
53699;BME280;68408;53.952;27.612;2023-04-28T06:36:21;1015.4;;;7.6;45.7
53699;BME280;68408;53.952;27.612;2023-04-28T06:41:07;1015.4;;;7.6;45.7
53699;BME280;68408;53.952;27.612;2023-04-28T06:46:39;1015.4;;;7.7;45.3
53699;BME280;68408;53.952;27.612;2023-04-28T06:51:29;1015.4;;;7.8;44.9
53699;BME280;68408;53.952;27.612;2023-04-28T06:56:21;1015.3;;;8;44
53699;BME280;68408;53.952;27.612;2023-04-28T07:01:23;1015.4;;;8;43.1
53699;BME280;68408;53.952;27.612;2023-04-28T07:06:47;1015.4;;;8;42.1
53699;BME280;68408;53.952;27.612;2023-04-28T07:11:21;1015.4;;;8.1;41.7
53699;BME280;68408;53.952;27.612;2023-04-28T07:16:21;1015.5;;;8.2;41.9
53699;BME280;68408;53.952;27.612;2023-04-28T07:21:07;1015.4;;;8.3;41.9
53699;BME280;68408;53.952;27.612;2023-04-28T07:26:47;1015.4;;;8.4;41.9
53699;BME280;68408;53.952;27.612;2023-04-28T07:31:41;1015.4;;;8.5;42
53699;BME280;68408;53.952;27.612;2023-04-28T07:36:13;1015.4;;;8.8;42.1
53699;BME280;68408;53.952;27.612;2023-04-28T07:41:47;1015.4;;;9.1;41.4
53699;BME280;68408;53.952;27.612;2023-04-28T07:46:29;1015.3;;;9.1;40.9
53699;BME280;68408;53.952;27.612;2023-04-28T07:51:23;1015.3;;;9.2;40.8
53699;BME280;68408;53.952;27.612;2023-04-28T07:56:37;1015.4;;;9.3;40.3
53699;BME280;68408;53.952;27.612;2023-04-28T08:01:47;1015.4;;;9.6;39.6
53699;BME280;68408;53.952;27.612;2023-04-28T08:06:29;1015.4;;;9.6;39
53699;BME280;68408;53.952;27.612;2023-04-28T08:11:47;1015.3;;;9.9;39
53699;BME280;68408;53.952;27.612;2023-04-28T08:16:47;1015.3;;;10;38.1
53699;BME280;68408;53.952;27.612;2023-04-28T08:21:15;1015.3;;;10.1;37.3
53699;BME280;68408;53.952;27.612;2023-04-28T08:26:07;1015.2;;;10.1;37.4
53699;BME280;68408;53.952;27.612;2023-04-28T08:31:37;1015.3;;;10.3;37.1
53699;BME280;68408;53.952;27.612;2023-04-28T08:36:33;1015.3;;;10.4;35.9
53699;BME280;68408;53.952;27.612;2023-04-28T08:41:37;1015.3;;;10.4;35.8
53699;BME280;68408;53.952;27.612;2023-04-28T08:46:27;1015.3;;;10.6;35.2
53699;BME280;68408;53.952;27.612;2023-04-28T08:51:49;1015.3;;;10.8;35.5
53699;BME280;68408;53.952;27.612;2023-04-28T08:56:34;1015.3;;;10.7;34.8
53699;BME280;68408;53.952;27.612;2023-04-28T09:01:47;1015.1;;;10.9;34.7
53699;BME280;68408;53.952;27.612;2023-04-28T09:06:13;1015.2;;;11.2;34.5
53699;BME280;68408;53.952;27.612;2023-04-28T09:11:50;1015.2;;;10.9;34.4
53699;BME280;68408;53.952;27.612;2023-04-28T09:16:41;1015.1;;;10.9;34.4
53699;BME280;68408;53.952;27.612;2023-04-28T09:21:44;1015.1;;;11.2;33.7
53699;BME280;68408;53.952;27.612;2023-04-28T09:26:47;1015.1;;;11.4;32.9
53699;BME280;68408;53.952;27.612;2023-04-28T09:31:23;1015;;;11.1;33.4
53699;BME280;68408;53.952;27.612;2023-04-28T09:36:26;1015;;;11.1;33.3
53699;BME280;68408;53.952;27.612;2023-04-28T09:41:35;1014.9;;;11.6;33.4
53699;BME280;68408;53.952;27.612;2023-04-28T09:46:18;1014.8;;;12.1;32.1
53699;BME280;68408;53.952;27.612;2023-04-28T09:51:47;1014.8;;;12.4;31.1
53699;BME280;68408;53.952;27.612;2023-04-28T09:56:32;1015;;;12.2;32.3
53699;BME280;68408;53.952;27.612;2023-04-28T10:01:17;1015;;;11.9;32.2
53699;BME280;68408;53.952;27.612;2023-04-28T10:06:34;1015;;;11.8;32.1
53699;BME280;68408;53.952;27.612;2023-04-28T10:11:51;1014.9;;;12;32
53699;BME280;68408;53.952;27.612;2023-04-28T10:16:07;1014.8;;;12.4;30.4
53699;BME280;68408;53.952;27.612;2023-04-28T10:21:25;1014.8;;;13.1;29.6
53699;BME280;68408;53.952;27.612;2023-04-28T10:26:17;1014.8;;;13.3;29.6
53699;BME280;68408;53.952;27.612;2023-04-28T10:32:13;1014.9;;;13;29.9
53699;BME280;68408;53.952;27.612;2023-04-28T10:36:49;1014.9;;;12.5;30.8
53699;BME280;68408;53.952;27.612;2023-04-28T10:41:07;1014.9;;;12.3;30.7
53699;BME280;68408;53.952;27.612;2023-04-28T10:47:04;1014.9;;;11.9;30.1
53699;BME280;68408;53.952;27.612;2023-04-28T10:51:30;1014.9;;;11.8;30.9
53699;BME280;68408;53.952;27.612;2023-04-28T10:56:07;1014.9;;;11.8;30.4
53699;BME280;68408;53.952;27.612;2023-04-28T11:01:23;1014.9;;;11.8;31
53699;BME280;68408;53.952;27.612;2023-04-28T11:07:07;1014.9;;;12;31.5
53699;BME280;68408;53.952;27.612;2023-04-28T11:11:23;1014.7;;;12.4;30.5
53699;BME280;68408;53.952;27.612;2023-04-28T11:16:48;1014.7;;;12.9;29.5
53699;BME280;68408;53.952;27.612;2023-04-28T11:21:48;1014.6;;;13.5;29
53699;BME280;68408;53.952;27.612;2023-04-28T11:26:16;1014.6;;;13.9;28.3
53699;BME280;68408;53.952;27.612;2023-04-28T11:31:18;1014.5;;;14;27.5
53699;BME280;68408;53.952;27.612;2023-04-28T11:36:40;1014.5;;;14;25.9
53699;BME280;68408;53.952;27.612;2023-04-28T11:41:32;1014.5;;;14.1;26.9
53699;BME280;68408;53.952;27.612;2023-04-28T11:46:52;1014.5;;;14.3;26.9
53699;BME280;68408;53.952;27.612;2023-04-28T11:51:32;1014.4;;;14.7;26.1
53699;BME280;68408;53.952;27.612;2023-04-28T11:56:45;1014.4;;;14.8;26.8
53699;BME280;68408;53.952;27.612;2023-04-28T12:01:34;1014.4;;;14.7;26.1
53699;BME280;68408;53.952;27.612;2023-04-28T12:06:07;1014.4;;;14.1;26.4
53699;BME280;68408;53.952;27.612;2023-04-28T12:11:37;1014.5;;;13.7;27.1
53699;BME280;68408;53.952;27.612;2023-04-28T12:16:47;1014.5;;;13.5;25.8
53699;BME280;68408;53.952;27.612;2023-04-28T12:21:08;1014.5;;;13.5;25.4
53699;BME280;68408;53.952;27.612;2023-04-28T12:26:35;1014.4;;;13.9;25.7
53699;BME280;68408;53.952;27.612;2023-04-28T12:31:31;1014.3;;;14.2;26
53699;BME280;68408;53.952;27.612;2023-04-28T12:36:08;1014.3;;;14.2;26.2
53699;BME280;68408;53.952;27.612;2023-04-28T12:41:15;1014.3;;;14;26.6
53699;BME280;68408;53.952;27.612;2023-04-28T12:46:29;1014.4;;;14;26.7
53699;BME280;68408;53.952;27.612;2023-04-28T12:51:23;1014.3;;;14;26.5
53699;BME280;68408;53.952;27.612;2023-04-28T12:56:41;1014.3;;;14.2;26.3
53699;BME280;68408;53.952;27.612;2023-04-28T13:01:49;1014.3;;;14.1;25.9
53699;BME280;68408;53.952;27.612;2023-04-28T13:06:07;1014.4;;;13.9;25.9
53699;BME280;68408;53.952;27.612;2023-04-28T13:11:33;1014.4;;;13.6;26.1
53699;BME280;68408;53.952;27.612;2023-04-28T13:16:41;1014.4;;;13.3;27
53699;BME280;68408;53.952;27.612;2023-04-28T13:21:24;1014.4;;;13.5;26.9
53699;BME280;68408;53.952;27.612;2023-04-28T13:26:17;1014.4;;;13.7;27
53699;BME280;68408;53.952;27.612;2023-04-28T13:31:39;1014.3;;;13.6;27.8
53699;BME280;68408;53.952;27.612;2023-04-28T13:36:50;1014.3;;;13.6;27.2
53699;BME280;68408;53.952;27.612;2023-04-28T13:41:51;1014.3;;;13.9;26.6
53699;BME280;68408;53.952;27.612;2023-04-28T13:46:08;1014.2;;;14;25.5
53699;BME280;68408;53.952;27.612;2023-04-28T13:51:51;1014.2;;;14.1;25
53699;BME280;68408;53.952;27.612;2023-04-28T13:56:08;1014.2;;;14.2;25.2
53699;BME280;68408;53.952;27.612;2023-04-28T14:01:08;1014.2;;;14;25.6
53699;BME280;68408;53.952;27.612;2023-04-28T14:06:23;1014.2;;;14;26
53699;BME280;68408;53.952;27.612;2023-04-28T14:11:43;1014.2;;;13.8;26.3
53699;BME280;68408;53.952;27.612;2023-04-28T14:16:15;1014.2;;;13.7;26.5
53699;BME280;68408;53.952;27.612;2023-04-28T14:21:52;1014.2;;;13.4;26.6
53699;BME280;68408;53.952;27.612;2023-04-28T14:26:51;1014.2;;;13;27.1
53699;BME280;68408;53.952;27.612;2023-04-28T15:01:52;1014;;;13.8;26.4
53699;BME280;68408;53.952;27.612;2023-04-28T15:06:36;1014;;;13.7;26.4
53699;BME280;68408;53.952;27.612;2023-04-28T15:11:08;1014;;;13.8;26.5
53699;BME280;68408;53.952;27.612;2023-04-28T15:16:24;1014;;;13.8;26.4
53699;BME280;68408;53.952;27.612;2023-04-28T15:21:36;1013.9;;;13.5;26.4
53699;BME280;68408;53.952;27.612;2023-04-28T15:26:28;1014;;;13.4;26.8
53699;BME280;68408;53.952;27.612;2023-04-28T15:31:40;1013.9;;;13.4;27
53699;BME280;68408;53.952;27.612;2023-04-28T15:36:38;1013.9;;;13.3;27.4
53699;BME280;68408;53.952;27.612;2023-04-28T15:41:08;1013.9;;;13.2;27.5
53699;BME280;68408;53.952;27.612;2023-04-28T15:46:38;1014;;;13.1;27.8
53699;BME280;68408;53.952;27.612;2023-04-28T15:51:33;1013.9;;;13.2;27.9
53699;BME280;68408;53.952;27.612;2023-04-28T15:56:24;1013.9;;;13.3;28
53699;BME280;68408;53.952;27.612;2023-04-28T16:01:46;1014;;;13.3;28.1
53699;BME280;68408;53.952;27.612;2023-04-28T16:06:54;1014;;;13.5;28
53699;BME280;68408;53.952;27.612;2023-04-28T16:11:46;1014;;;13.5;27.7
53699;BME280;68408;53.952;27.612;2023-04-28T16:16:38;1014;;;13.5;27.4
53699;BME280;68408;53.952;27.612;2023-04-28T16:21:46;1014;;;13.5;27.3
53699;BME280;68408;53.952;27.612;2023-04-28T16:26:38;1014;;;13.4;27.7
53699;BME280;68408;53.952;27.612;2023-04-28T16:31:40;1014;;;12.9;28.1
53699;BME280;68408;53.952;27.612;2023-04-28T16:36:34;1014.1;;;12.5;28.6
53699;BME280;68408;53.952;27.612;2023-04-28T16:41:56;1014.1;;;12.3;29
53699;BME280;68408;53.952;27.612;2023-04-28T16:46:56;1014.1;;;12.1;29.3
53699;BME280;68408;53.952;27.612;2023-04-28T16:51:18;1014.1;;;12;29.8
53699;BME280;68408;53.952;27.612;2023-04-28T16:56:56;1014;;;12;30.2
53699;BME280;68408;53.952;27.612;2023-04-28T17:01:46;1014;;;11.8;30.6
53699;BME280;68408;53.952;27.612;2023-04-28T17:06:08;1014;;;11.6;31
53699;BME280;68408;53.952;27.612;2023-04-28T17:11:08;1014;;;11.4;31.5
53699;BME280;68408;53.952;27.612;2023-04-28T17:16:54;1014.1;;;11.3;31.9
53699;BME280;68408;53.952;27.612;2023-04-28T17:21:18;1014.1;;;11.1;32.3
53699;BME280;68408;53.952;27.612;2023-04-28T17:26:40;1014.1;;;10.9;32.9
53699;BME280;68408;53.952;27.612;2023-04-28T17:31:52;1014.1;;;10.8;33.3
53699;BME280;68408;53.952;27.612;2023-04-28T17:36:16;1014.1;;;10.6;33.7
53699;BME280;68408;53.952;27.612;2023-04-28T17:41:52;1014.1;;;10.5;34.2
53699;BME280;68408;53.952;27.612;2023-04-28T17:46:22;1014.2;;;10.4;34.3
53699;BME280;68408;53.952;27.612;2023-04-28T17:51:36;1014.2;;;10.3;35
53699;BME280;68408;53.952;27.612;2023-04-28T17:56:44;1014.3;;;10.1;35.6
53699;BME280;68408;53.952;27.612;2023-04-28T18:01:40;1014.3;;;9.9;35.9
53699;BME280;68408;53.952;27.612;2023-04-28T18:06:52;1014.3;;;9.8;36.3
53699;BME280;68408;53.952;27.612;2023-04-28T18:11:28;1014.4;;;9.7;36.5
53699;BME280;68408;53.952;27.612;2023-04-28T18:16:08;1014.4;;;9.6;36.8
53699;BME280;68408;53.952;27.612;2023-04-28T18:21:34;1014.4;;;9.5;37.4
53699;BME280;68408;53.952;27.612;2023-04-28T18:26:52;1014.5;;;9.5;37.8
53699;BME280;68408;53.952;27.612;2023-04-28T18:31:28;1014.5;;;9.4;38.1
53699;BME280;68408;53.952;27.612;2023-04-28T18:36:38;1014.5;;;9.3;38.2
53699;BME280;68408;53.952;27.612;2023-04-28T18:41:40;1014.5;;;9.2;38.6
53699;BME280;68408;53.952;27.612;2023-04-28T18:46:08;1014.5;;;9.1;38.4
53699;BME280;68408;53.952;27.612;2023-04-28T18:51:26;1014.5;;;9;38.5
53699;BME280;68408;53.952;27.612;2023-04-28T18:56:18;1014.5;;;9;38.6
53699;BME280;68408;53.952;27.612;2023-04-28T19:01:11;1014.5;;;8.9;38.8
53699;BME280;68408;53.952;27.612;2023-04-28T19:06:45;1014.5;;;8.8;38.9
53699;BME280;68408;53.952;27.612;2023-04-28T19:11:54;1014.5;;;8.8;39.4
53699;BME280;68408;53.952;27.612;2023-04-28T19:16:16;1014.4;;;8.8;39.6
53699;BME280;68408;53.952;27.612;2023-04-28T19:21:39;1014.4;;;8.8;39.9
53699;BME280;68408;53.952;27.612;2023-04-28T19:26:44;1014.4;;;8.7;40.4
53699;BME280;68408;53.952;27.612;2023-04-28T19:31:18;1014.4;;;8.7;40.6
53699;BME280;68408;53.952;27.612;2023-04-28T19:36:28;1014.4;;;8.6;40.7
53699;BME280;68408;53.952;27.612;2023-04-28T19:41:40;1014.4;;;8.6;40.9
53699;BME280;68408;53.952;27.612;2023-04-28T19:46:52;1014.4;;;8.5;41.2
53699;BME280;68408;53.952;27.612;2023-04-28T19:51:52;1014.4;;;8.5;41.6
53699;BME280;68408;53.952;27.612;2023-04-28T19:56:18;1014.5;;;8.4;42.4
53699;BME280;68408;53.952;27.612;2023-04-28T20:01:52;1014.4;;;8.3;42.7
53699;BME280;68408;53.952;27.612;2023-04-28T20:06:44;1014.5;;;8.2;42.8
53699;BME280;68408;53.952;27.612;2023-04-28T20:11:32;1014.5;;;8.2;43
53699;BME280;68408;53.952;27.612;2023-04-28T20:16:22;1014.5;;;8.1;43.5
53699;BME280;68408;53.952;27.612;2023-04-28T20:21:50;1014.5;;;8;44
53699;BME280;68408;53.952;27.612;2023-04-28T20:26:22;1014.6;;;7.9;44.2
53699;BME280;68408;53.952;27.612;2023-04-28T20:31:50;1014.6;;;7.8;44.5
53699;BME280;68408;53.952;27.612;2023-04-28T20:36:48;1014.6;;;7.7;44.8
53699;BME280;68408;53.952;27.612;2023-04-28T20:41:16;1014.7;;;7.6;45
53699;BME280;68408;53.952;27.612;2023-04-28T20:46:08;1014.7;;;7.5;45
53699;BME280;68408;53.952;27.612;2023-04-28T20:51:32;1014.6;;;7.4;44.7
53699;BME280;68408;53.952;27.612;2023-04-28T20:56:24;1014.6;;;7.4;45.1
53699;BME280;68408;53.952;27.612;2023-04-28T21:01:44;1014.7;;;7.3;45.8
53699;BME280;68408;53.952;27.612;2023-04-28T21:06:30;1014.7;;;7.2;46.4
53699;BME280;68408;53.952;27.612;2023-04-28T21:11:24;1014.7;;;7.1;46.9
53699;BME280;68408;53.952;27.612;2023-04-28T21:16:36;1014.7;;;7.1;47.2
53699;BME280;68408;53.952;27.612;2023-04-28T21:21:52;1014.7;;;7;47.5
53699;BME280;68408;53.952;27.612;2023-04-28T21:26:26;1014.7;;;6.9;48
53699;BME280;68408;53.952;27.612;2023-04-28T21:31:36;1014.7;;;6.8;49
53699;BME280;68408;53.952;27.612;2023-04-28T21:36:44;1014.7;;;6.7;49.5
53699;BME280;68408;53.952;27.612;2023-04-28T21:41:50;1014.7;;;6.6;49.8
53699;BME280;68408;53.952;27.612;2023-04-28T21:46:18;1014.7;;;6.5;50.2
53699;BME280;68408;53.952;27.612;2023-04-28T21:51:40;1014.7;;;6.4;50.4
53699;BME280;68408;53.952;27.612;2023-04-28T21:56:48;1014.7;;;6.4;51.1
53699;BME280;68408;53.952;27.612;2023-04-28T22:01:30;1014.6;;;6.3;51.3
53699;BME280;68408;53.952;27.612;2023-04-28T22:06:16;1014.6;;;6.2;51.5
53699;BME280;68408;53.952;27.612;2023-04-28T22:11:42;1014.6;;;6.2;51.7
53699;BME280;68408;53.952;27.612;2023-04-28T22:16:48;1014.6;;;6.1;52.1
53699;BME280;68408;53.952;27.612;2023-04-28T22:21:30;1014.6;;;6.1;52.4
53699;BME280;68408;53.952;27.612;2023-04-28T22:26:34;1014.6;;;6;52.9
53699;BME280;68408;53.952;27.612;2023-04-28T22:31:42;1014.5;;;6;53.2
53699;BME280;68408;53.952;27.612;2023-04-28T22:36:38;1014.6;;;5.9;53.5
53699;BME280;68408;53.952;27.612;2023-04-28T22:41:26;1014.6;;;5.9;53.9
53699;BME280;68408;53.952;27.612;2023-04-28T22:46:40;1014.6;;;5.8;54.3
53699;BME280;68408;53.952;27.612;2023-04-28T22:51:50;1014.6;;;5.9;54.1
53699;BME280;68408;53.952;27.612;2023-04-28T22:56:50;1014.6;;;5.8;54.2
53699;BME280;68408;53.952;27.612;2023-04-28T23:01:16;1014.5;;;5.8;54.5
53699;BME280;68408;53.952;27.612;2023-04-28T23:06:50;1014.5;;;5.7;55
53699;BME280;68408;53.952;27.612;2023-04-28T23:11:42;1014.5;;;5.6;55.3
53699;BME280;68408;53.952;27.612;2023-04-28T23:16:22;1014.5;;;5.5;55.7
53699;BME280;68408;53.952;27.612;2023-04-28T23:21:08;1014.4;;;5.5;56.1
53699;BME280;68408;53.952;27.612;2023-04-28T23:26:50;1014.4;;;5.5;56.5
53699;BME280;68408;53.952;27.612;2023-04-28T23:31:08;1014.4;;;5.4;57
53699;BME280;68408;53.952;27.612;2023-04-28T23:36:38;1014.4;;;5.3;57.6
53699;BME280;68408;53.952;27.612;2023-04-28T23:41:50;1014.4;;;5.3;57.8
53699;BME280;68408;53.952;27.612;2023-04-28T23:46:16;1014.4;;;5.2;58.1
53699;BME280;68408;53.952;27.612;2023-04-28T23:51:42;1014.4;;;5.2;58.5
53699;BME280;68408;53.952;27.612;2023-04-28T23:56:28;1014.4;;;5;59.1
